createdAt,value
2022-11-03T00:03:38.436Z,0
2022-11-03T00:08:38.452Z,0
2022-11-03T00:13:38.394Z,0
2022-11-03T00:18:38.404Z,0
2022-11-03T00:23:38.427Z,0
2022-11-03T00:28:38.464Z,0
2022-11-03T00:33:38.402Z,0
2022-11-03T00:38:38.393Z,0
2022-11-03T00:43:38.411Z,0
2022-11-03T00:48:38.435Z,0
2022-11-03T00:53:38.356Z,0
2022-11-03T00:58:38.427Z,0
2022-11-03T01:03:38.435Z,0
2022-11-03T01:08:38.440Z,0
2022-11-03T01:13:38.414Z,0
2022-11-03T01:18:38.424Z,0
2022-11-03T01:23:38.417Z,0
2022-11-03T01:28:38.426Z,0
2022-11-03T01:33:38.417Z,0
2022-11-03T01:38:38.380Z,0
2022-11-03T01:43:38.384Z,0
2022-11-03T01:48:38.446Z,0
2022-11-03T01:53:38.409Z,0
2022-11-03T01:58:38.404Z,0
2022-11-03T02:03:38.395Z,0
2022-11-03T02:08:38.417Z,0
2022-11-03T02:13:38.409Z,0
2022-11-03T02:18:38.409Z,0
2022-11-03T02:23:38.367Z,0
2022-11-03T02:28:38.423Z,0
2022-11-03T02:33:38.399Z,0
2022-11-03T02:38:38.384Z,0
2022-11-03T02:43:38.371Z,0
2022-11-03T02:48:38.394Z,0
2022-11-03T02:53:38.406Z,0
2022-11-03T02:58:38.353Z,0
2022-11-03T03:03:38.360Z,0
2022-11-03T03:08:38.408Z,0
2022-11-03T03:13:38.382Z,0
2022-11-03T03:18:38.358Z,0
2022-11-03T03:23:38.361Z,0
2022-11-03T03:28:38.374Z,0
2022-11-03T03:33:38.884Z,0
2022-11-03T03:38:38.370Z,0
2022-11-03T03:43:38.375Z,0
2022-11-03T03:48:38.353Z,0
2022-11-03T03:53:38.380Z,0
2022-11-03T03:58:38.366Z,0
2022-11-03T04:03:38.376Z,0
2022-11-03T04:08:38.385Z,0
2022-11-03T04:13:38.367Z,0
2022-11-03T04:18:38.366Z,0
2022-11-03T04:23:38.354Z,0
2022-11-03T04:28:38.396Z,0
2022-11-03T04:33:38.368Z,0
2022-11-03T04:38:38.355Z,0
2022-11-03T04:43:38.368Z,0
2022-11-03T04:48:38.382Z,0
2022-11-03T04:53:38.330Z,0
2022-11-03T04:58:38.359Z,0
2022-11-03T05:03:38.350Z,0
2022-11-03T05:08:38.343Z,0
2022-11-03T05:13:38.336Z,0
2022-11-03T05:18:38.373Z,0
2022-11-03T05:23:38.522Z,0
2022-11-03T05:28:38.368Z,0
2022-11-03T05:33:38.348Z,0
2022-11-03T05:38:38.341Z,0
2022-11-03T05:43:38.323Z,0
2022-11-03T05:48:38.408Z,0
2022-11-03T05:53:38.336Z,0
2022-11-03T05:58:38.358Z,0
2022-11-03T06:03:38.322Z,0
2022-11-03T06:08:40.138Z,0
2022-11-03T06:13:38.320Z,0
2022-11-03T06:18:38.367Z,0
2022-11-03T06:23:38.347Z,0
2022-11-03T06:28:38.346Z,0
2022-11-03T06:33:38.316Z,2
2022-11-03T06:38:38.314Z,5
2022-11-03T06:43:38.323Z,7
2022-11-03T06:48:38.323Z,15
2022-11-03T06:53:38.337Z,12
2022-11-03T06:58:38.319Z,13
2022-11-03T07:03:38.335Z,14
2022-11-03T07:08:38.327Z,15
2022-11-03T07:13:38.310Z,19
2022-11-03T07:18:38.321Z,23
2022-11-03T07:23:40.182Z,26
2022-11-03T07:28:38.325Z,31
2022-11-03T07:33:38.308Z,38
2022-11-03T07:38:38.281Z,40
2022-11-03T07:43:38.331Z,44
2022-11-03T07:48:38.348Z,50
2022-11-03T07:53:38.299Z,55
2022-11-03T07:58:38.323Z,59
2022-11-03T08:03:38.275Z,63
2022-11-03T08:08:38.335Z,67
2022-11-03T08:13:38.320Z,74
2022-11-03T08:18:38.275Z,107
2022-11-03T08:23:40.031Z,108
2022-11-03T08:28:38.346Z,114
2022-11-03T08:33:38.314Z,158
2022-11-03T08:38:38.278Z,193
2022-11-03T08:43:38.270Z,169
2022-11-03T08:48:38.299Z,169
2022-11-03T08:53:38.309Z,169
2022-11-03T08:58:38.313Z,160
2022-11-03T09:03:38.349Z,170
2022-11-03T09:13:38.242Z,236
2022-11-03T09:18:38.279Z,181
2022-11-03T09:23:38.267Z,145
2022-11-03T09:28:38.308Z,125
2022-11-03T09:33:38.288Z,130
2022-11-03T09:38:38.300Z,156
2022-11-03T09:43:38.300Z,158
2022-11-03T09:48:38.284Z,189
2022-11-03T09:53:38.307Z,191
2022-11-03T09:58:38.262Z,199
2022-11-03T10:03:38.260Z,197
2022-11-03T10:08:38.329Z,221
2022-11-03T10:13:38.258Z,217
2022-11-03T10:18:38.236Z,181
2022-11-03T10:23:38.303Z,155
2022-11-03T10:28:38.305Z,173
2022-11-03T10:33:38.263Z,208
2022-11-03T10:38:38.279Z,201
2022-11-03T10:43:38.267Z,172
2022-11-03T10:48:38.276Z,167
2022-11-03T10:53:38.252Z,162
2022-11-03T10:58:38.256Z,141
2022-11-03T11:03:38.276Z,132
2022-11-03T11:08:38.387Z,133
2022-11-03T11:13:38.248Z,136
2022-11-03T11:18:38.267Z,139
2022-11-03T11:23:38.289Z,143
2022-11-03T11:28:38.272Z,153
2022-11-03T11:33:38.267Z,130
2022-11-03T11:38:38.832Z,111
2022-11-03T11:43:38.495Z,98
2022-11-03T11:48:38.530Z,73
2022-11-03T11:53:38.504Z,68
2022-11-03T11:58:38.519Z,60
2022-11-03T12:03:38.655Z,60
2022-11-03T12:08:38.522Z,59
2022-11-03T12:13:38.476Z,58
2022-11-03T12:18:40.940Z,60
2022-11-03T12:23:38.502Z,67
2022-11-03T12:28:38.555Z,72
2022-11-03T12:33:38.534Z,81
2022-11-03T12:38:38.512Z,79
2022-11-03T12:43:38.510Z,76
2022-11-03T12:48:38.557Z,75
2022-11-03T12:53:38.487Z,81
2022-11-03T12:58:38.490Z,100
2022-11-03T13:03:38.492Z,103
2022-11-03T13:08:38.541Z,83
2022-11-03T13:13:38.488Z,68
2022-11-03T13:18:38.519Z,56
2022-11-03T13:23:38.496Z,127
2022-11-03T13:28:38.566Z,297
2022-11-03T13:33:38.511Z,267
2022-11-03T13:38:38.484Z,209
2022-11-03T13:43:38.492Z,176
2022-11-03T14:08:38.504Z,52
2022-11-03T14:13:38.496Z,47
2022-11-03T14:18:38.478Z,41
2022-11-03T14:23:38.476Z,30
2022-11-03T14:28:38.506Z,33
2022-11-03T14:33:38.498Z,26
2022-11-03T14:38:38.504Z,19
2022-11-03T14:43:38.463Z,16
2022-11-03T14:48:38.522Z,17
2022-11-03T14:53:38.482Z,13
2022-11-03T14:58:38.475Z,15
2022-11-03T15:03:38.463Z,13
2022-11-03T15:08:38.516Z,5
2022-11-03T15:13:41.494Z,2
2022-11-03T15:18:38.458Z,1
2022-11-03T15:28:38.504Z,2
2022-11-03T15:33:38.441Z,1
2022-11-03T15:38:38.480Z,0
2022-11-03T15:43:38.459Z,0
2022-11-03T15:48:38.475Z,0
2022-11-03T15:53:38.458Z,0
2022-11-03T15:58:38.459Z,0
2022-11-03T16:03:38.489Z,0
2022-11-03T16:08:38.502Z,0
2022-11-03T16:13:39.520Z,0
2022-11-03T16:18:38.466Z,0
2022-11-03T16:23:38.452Z,0
2022-11-03T16:28:38.488Z,0
2022-11-03T16:33:38.470Z,0
2022-11-03T16:38:38.464Z,0
2022-11-03T16:43:38.449Z,0
2022-11-03T16:48:38.477Z,0
2022-11-03T16:53:38.460Z,0
2022-11-03T16:58:38.448Z,0
2022-11-03T17:03:38.437Z,0
2022-11-03T17:08:52.208Z,0
2022-11-03T17:13:38.447Z,0
2022-11-03T17:18:38.449Z,0
2022-11-03T17:23:38.468Z,0
2022-11-03T17:28:38.469Z,0
2022-11-03T17:33:38.438Z,0
2022-11-03T17:38:38.429Z,0
2022-11-03T17:43:38.448Z,0
2022-11-03T17:48:38.467Z,0
2022-11-03T17:53:38.451Z,0
2022-11-03T17:58:41.860Z,0
2022-11-03T18:03:38.440Z,0
2022-11-03T18:08:38.450Z,0
2022-11-03T18:13:38.428Z,0
2022-11-03T18:18:38.446Z,0
2022-11-03T18:23:38.494Z,0
2022-11-03T18:28:38.458Z,0
2022-11-03T18:33:38.468Z,0
2022-11-03T18:38:38.457Z,0
2022-11-03T18:43:38.423Z,0
2022-11-03T18:48:38.474Z,0
2022-11-03T18:53:38.435Z,0
2022-11-03T18:58:38.415Z,0
2022-11-03T19:03:38.430Z,0
2022-11-03T19:08:38.475Z,0
2022-11-03T19:13:38.418Z,0
2022-11-03T19:18:38.391Z,0
2022-11-03T19:23:38.426Z,0
2022-11-03T19:28:38.463Z,0
2022-11-03T19:33:38.439Z,0
2022-11-03T19:38:38.405Z,0
2022-11-03T19:43:38.410Z,0
2022-11-03T19:48:38.436Z,0
2022-11-03T19:53:40.285Z,0
2022-11-03T19:58:38.403Z,0
2022-11-03T20:03:38.410Z,0
2022-11-03T20:08:38.429Z,0
2022-11-03T20:13:38.397Z,0
2022-11-03T20:18:38.397Z,0
2022-11-03T20:23:38.416Z,0
2022-11-03T20:28:38.450Z,0
2022-11-03T20:33:38.421Z,0
2022-11-03T20:38:38.422Z,0
2022-11-03T20:43:38.405Z,0
2022-11-03T20:48:38.426Z,0
2022-11-03T20:53:38.392Z,0
2022-11-03T20:58:38.381Z,0
2022-11-03T21:03:57.933Z,0
2022-11-03T21:08:38.410Z,0
2022-11-03T21:13:38.412Z,0
2022-11-03T21:18:38.372Z,0
2022-11-03T21:23:38.583Z,0
2022-11-03T21:28:38.664Z,0
2022-11-03T21:33:38.650Z,0
2022-11-03T21:38:38.618Z,0
2022-11-03T21:43:38.646Z,0
2022-11-03T21:48:38.652Z,0
2022-11-03T21:53:38.573Z,0
2022-11-03T21:58:38.654Z,0
2022-11-03T22:03:38.646Z,0
2022-11-03T22:08:38.596Z,0
2022-11-03T22:13:38.643Z,0
2022-11-03T22:18:38.634Z,0
2022-11-03T22:23:38.629Z,0
2022-11-03T22:28:38.687Z,0
2022-11-03T22:33:38.604Z,0
2022-11-03T22:38:38.620Z,0
2022-11-03T22:43:38.632Z,0
2022-11-03T22:48:38.648Z,0
2022-11-03T22:53:38.608Z,0
2022-11-03T22:58:38.608Z,0
2022-11-03T23:03:38.633Z,0
2022-11-03T23:08:38.641Z,0
2022-11-03T23:13:38.637Z,0
2022-11-03T23:18:38.628Z,0
2022-11-03T23:23:38.615Z,0
2022-11-03T23:28:38.653Z,0
2022-11-03T23:33:38.621Z,0
2022-11-03T23:38:38.592Z,0
2022-11-03T23:43:38.606Z,0
2022-11-03T23:48:38.640Z,0
2022-11-03T23:53:38.590Z,0
2022-11-03T23:58:38.630Z,0
